sensor_id;sensor_type;location;lat;lon;timestamp;P1;durP1;ratioP1;P2;durP2;ratioP2
43710;SDS011;29309;42.682;23.372;2022-12-29T00:02:21;29.35;;;15.88;;
43710;SDS011;29309;42.682;23.372;2022-12-29T00:04:48;27.77;;;13.85;;
43710;SDS011;29309;42.682;23.372;2022-12-29T00:07:15;20.17;;;10.95;;
43710;SDS011;29309;42.682;23.372;2022-12-29T00:09:41;24.38;;;10.93;;
43710;SDS011;29309;42.682;23.372;2022-12-29T00:12:06;23.48;;;12.15;;
43710;SDS011;29309;42.682;23.372;2022-12-29T00:14:31;26.67;;;12.50;;
43710;SDS011;29309;42.682;23.372;2022-12-29T00:17:15;22.00;;;11.45;;
43710;SDS011;29309;42.682;23.372;2022-12-29T00:19:41;23.17;;;11.93;;
43710;SDS011;29309;42.682;23.372;2022-12-29T00:22:25;20.02;;;11.70;;
43710;SDS011;29309;42.682;23.372;2022-12-29T00:25:10;23.02;;;12.23;;
43710;SDS011;29309;42.682;23.372;2022-12-29T00:27:55;22.40;;;11.93;;
43710;SDS011;29309;42.682;23.372;2022-12-29T00:30:40;32.75;;;11.88;;
43710;SDS011;29309;42.682;23.372;2022-12-29T00:33:31;24.83;;;13.88;;
43710;SDS011;29309;42.682;23.372;2022-12-29T00:36:26;25.15;;;11.98;;
43710;SDS011;29309;42.682;23.372;2022-12-29T00:39:02;22.70;;;12.52;;
43710;SDS011;29309;42.682;23.372;2022-12-29T00:42:05;24.88;;;12.75;;
43710;SDS011;29309;42.682;23.372;2022-12-29T00:44:50;22.13;;;11.93;;
43710;SDS011;29309;42.682;23.372;2022-12-29T00:47:15;19.70;;;11.15;;
43710;SDS011;29309;42.682;23.372;2022-12-29T00:49:41;22.85;;;11.68;;
43710;SDS011;29309;42.682;23.372;2022-12-29T00:52:07;22.98;;;12.05;;
43710;SDS011;29309;42.682;23.372;2022-12-29T00:54:36;22.00;;;12.85;;
43710;SDS011;29309;42.682;23.372;2022-12-29T00:57:03;24.63;;;12.38;;
43710;SDS011;29309;42.682;23.372;2022-12-29T00:59:30;22.63;;;12.10;;
43710;SDS011;29309;42.682;23.372;2022-12-29T01:01:56;25.75;;;13.98;;
43710;SDS011;29309;42.682;23.372;2022-12-29T01:04:22;23.10;;;12.63;;
43710;SDS011;29309;42.682;23.372;2022-12-29T01:06:50;20.20;;;11.30;;
43710;SDS011;29309;42.682;23.372;2022-12-29T01:09:16;20.83;;;11.45;;
43710;SDS011;29309;42.682;23.372;2022-12-29T01:12:01;23.63;;;12.35;;
43710;SDS011;29309;42.682;23.372;2022-12-29T01:14:27;22.15;;;12.45;;
43710;SDS011;29309;42.682;23.372;2022-12-29T01:16:53;26.20;;;13.07;;
43710;SDS011;29309;42.682;23.372;2022-12-29T01:19:20;20.17;;;11.55;;
43710;SDS011;29309;42.682;23.372;2022-12-29T01:21:45;22.15;;;12.38;;
43710;SDS011;29309;42.682;23.372;2022-12-29T01:24:12;23.40;;;12.80;;
43710;SDS011;29309;42.682;23.372;2022-12-29T01:26:37;19.42;;;12.15;;
43710;SDS011;29309;42.682;23.372;2022-12-29T01:29:03;21.58;;;11.73;;
43710;SDS011;29309;42.682;23.372;2022-12-29T01:31:29;21.55;;;11.82;;
43710;SDS011;29309;42.682;23.372;2022-12-29T01:33:54;23.30;;;12.95;;
43710;SDS011;29309;42.682;23.372;2022-12-29T01:36:20;21.05;;;11.60;;
43710;SDS011;29309;42.682;23.372;2022-12-29T01:38:45;20.98;;;11.13;;
43710;SDS011;29309;42.682;23.372;2022-12-29T01:41:11;24.58;;;12.48;;
43710;SDS011;29309;42.682;23.372;2022-12-29T01:43:43;19.40;;;12.55;;
43710;SDS011;29309;42.682;23.372;2022-12-29T01:48:49;19.38;;;10.35;;
43710;SDS011;29309;42.682;23.372;2022-12-29T01:51:18;17.80;;;10.88;;
43710;SDS011;29309;42.682;23.372;2022-12-29T01:53:47;20.05;;;10.15;;
43710;SDS011;29309;42.682;23.372;2022-12-29T01:56:13;17.70;;;10.55;;
43710;SDS011;29309;42.682;23.372;2022-12-29T01:58:44;18.85;;;11.18;;
43710;SDS011;29309;42.682;23.372;2022-12-29T02:01:13;22.67;;;11.85;;
43710;SDS011;29309;42.682;23.372;2022-12-29T02:03:40;15.90;;;9.80;;
43710;SDS011;29309;42.682;23.372;2022-12-29T02:08:32;19.98;;;10.50;;
43710;SDS011;29309;42.682;23.372;2022-12-29T02:10:58;18.17;;;10.18;;
43710;SDS011;29309;42.682;23.372;2022-12-29T02:13:26;16.70;;;9.70;;
43710;SDS011;29309;42.682;23.372;2022-12-29T02:16:00;20.25;;;10.52;;
43710;SDS011;29309;42.682;23.372;2022-12-29T02:24:38;18.17;;;10.23;;
43710;SDS011;29309;42.682;23.372;2022-12-29T02:41:32;22.02;;;11.07;;
43710;SDS011;29309;42.682;23.372;2022-12-29T02:49:20;19.60;;;9.95;;
43710;SDS011;29309;42.682;23.372;2022-12-29T02:54:40;18.50;;;9.60;;
43710;SDS011;29309;42.682;23.372;2022-12-29T02:57:13;22.00;;;10.75;;
43710;SDS011;29309;42.682;23.372;2022-12-29T02:59:47;19.63;;;10.50;;
43710;SDS011;29309;42.682;23.372;2022-12-29T03:10:25;19.48;;;9.63;;
43710;SDS011;29309;42.682;23.372;2022-12-29T03:13:16;19.88;;;10.35;;
43710;SDS011;29309;42.682;23.372;2022-12-29T03:19:10;21.83;;;12.00;;
43710;SDS011;29309;42.682;23.372;2022-12-29T03:22:03;16.20;;;9.65;;
43710;SDS011;29309;42.682;23.372;2022-12-29T03:24:50;18.38;;;9.80;;
43710;SDS011;29309;42.682;23.372;2022-12-29T03:27:28;24.40;;;12.23;;
43710;SDS011;29309;42.682;23.372;2022-12-29T03:29:57;22.17;;;10.85;;
43710;SDS011;29309;42.682;23.372;2022-12-29T03:32:36;24.50;;;11.15;;
43710;SDS011;29309;42.682;23.372;2022-12-29T03:35:07;20.88;;;10.52;;
43710;SDS011;29309;42.682;23.372;2022-12-29T03:37:35;17.50;;;10.50;;
43710;SDS011;29309;42.682;23.372;2022-12-29T03:40:06;20.80;;;11.82;;
43710;SDS011;29309;42.682;23.372;2022-12-29T03:42:33;17.98;;;10.27;;
43710;SDS011;29309;42.682;23.372;2022-12-29T03:45:01;21.73;;;10.88;;
43710;SDS011;29309;42.682;23.372;2022-12-29T03:47:31;21.80;;;11.95;;
43710;SDS011;29309;42.682;23.372;2022-12-29T03:49:56;22.38;;;11.60;;
43710;SDS011;29309;42.682;23.372;2022-12-29T03:52:22;19.48;;;11.90;;
43710;SDS011;29309;42.682;23.372;2022-12-29T03:54:47;21.15;;;12.18;;
43710;SDS011;29309;42.682;23.372;2022-12-29T03:57:13;21.95;;;11.98;;
43710;SDS011;29309;42.682;23.372;2022-12-29T03:59:38;24.15;;;12.65;;
43710;SDS011;29309;42.682;23.372;2022-12-29T04:02:03;31.60;;;12.30;;
43710;SDS011;29309;42.682;23.372;2022-12-29T04:04:29;25.85;;;13.18;;
43710;SDS011;29309;42.682;23.372;2022-12-29T04:06:54;26.08;;;12.43;;
43710;SDS011;29309;42.682;23.372;2022-12-29T04:09:20;35.20;;;14.00;;
43710;SDS011;29309;42.682;23.372;2022-12-29T04:11:45;23.33;;;13.05;;
43710;SDS011;29309;42.682;23.372;2022-12-29T04:14:11;23.95;;;12.70;;
43710;SDS011;29309;42.682;23.372;2022-12-29T04:16:36;26.77;;;12.88;;
43710;SDS011;29309;42.682;23.372;2022-12-29T04:19:03;25.52;;;13.70;;
43710;SDS011;29309;42.682;23.372;2022-12-29T04:21:29;25.50;;;13.18;;
43710;SDS011;29309;42.682;23.372;2022-12-29T04:23:55;22.23;;;11.80;;
43710;SDS011;29309;42.682;23.372;2022-12-29T04:26:20;24.42;;;12.63;;
43710;SDS011;29309;42.682;23.372;2022-12-29T04:28:46;24.73;;;13.50;;
43710;SDS011;29309;42.682;23.372;2022-12-29T04:31:11;23.17;;;12.35;;
43710;SDS011;29309;42.682;23.372;2022-12-29T04:33:36;20.13;;;10.82;;
43710;SDS011;29309;42.682;23.372;2022-12-29T04:36:02;26.00;;;13.07;;
43710;SDS011;29309;42.682;23.372;2022-12-29T04:38:28;15.52;;;9.45;;
43710;SDS011;29309;42.682;23.372;2022-12-29T04:40:53;20.67;;;10.90;;
43710;SDS011;29309;42.682;23.372;2022-12-29T04:43:19;22.20;;;10.93;;
43710;SDS011;29309;42.682;23.372;2022-12-29T04:45:47;20.73;;;11.57;;
43710;SDS011;29309;42.682;23.372;2022-12-29T04:48:13;24.35;;;13.50;;
43710;SDS011;29309;42.682;23.372;2022-12-29T04:50:39;22.02;;;11.35;;
43710;SDS011;29309;42.682;23.372;2022-12-29T04:53:05;24.75;;;11.68;;
43710;SDS011;29309;42.682;23.372;2022-12-29T04:55:31;18.40;;;10.57;;
43710;SDS011;29309;42.682;23.372;2022-12-29T04:57:57;23.50;;;11.50;;
43710;SDS011;29309;42.682;23.372;2022-12-29T05:00:22;21.75;;;10.07;;
43710;SDS011;29309;42.682;23.372;2022-12-29T05:02:48;21.25;;;10.88;;
43710;SDS011;29309;42.682;23.372;2022-12-29T05:05:14;24.60;;;10.65;;
43710;SDS011;29309;42.682;23.372;2022-12-29T05:07:39;18.77;;;10.32;;
43710;SDS011;29309;42.682;23.372;2022-12-29T05:10:05;19.20;;;9.25;;
43710;SDS011;29309;42.682;23.372;2022-12-29T05:12:32;20.98;;;10.30;;
43710;SDS011;29309;42.682;23.372;2022-12-29T05:14:59;17.25;;;9.82;;
43710;SDS011;29309;42.682;23.372;2022-12-29T05:17:24;20.35;;;10.88;;
43710;SDS011;29309;42.682;23.372;2022-12-29T05:19:50;18.13;;;9.82;;
43710;SDS011;29309;42.682;23.372;2022-12-29T05:22:16;19.25;;;9.85;;
43710;SDS011;29309;42.682;23.372;2022-12-29T05:24:41;20.80;;;10.77;;
43710;SDS011;29309;42.682;23.372;2022-12-29T05:27:07;19.85;;;10.43;;
43710;SDS011;29309;42.682;23.372;2022-12-29T05:29:32;15.77;;;9.38;;
43710;SDS011;29309;42.682;23.372;2022-12-29T05:31:57;18.50;;;10.00;;
43710;SDS011;29309;42.682;23.372;2022-12-29T05:34:23;19.52;;;10.60;;
43710;SDS011;29309;42.682;23.372;2022-12-29T05:36:48;20.60;;;11.73;;
43710;SDS011;29309;42.682;23.372;2022-12-29T05:39:14;21.25;;;11.77;;
43710;SDS011;29309;42.682;23.372;2022-12-29T05:41:39;26.00;;;11.60;;
43710;SDS011;29309;42.682;23.372;2022-12-29T05:44:05;20.75;;;11.57;;
43710;SDS011;29309;42.682;23.372;2022-12-29T05:46:31;23.60;;;10.98;;
43710;SDS011;29309;42.682;23.372;2022-12-29T05:48:56;23.55;;;11.25;;
43710;SDS011;29309;42.682;23.372;2022-12-29T05:51:22;16.38;;;9.85;;
43710;SDS011;29309;42.682;23.372;2022-12-29T05:53:47;24.38;;;11.70;;
43710;SDS011;29309;42.682;23.372;2022-12-29T05:56:13;24.13;;;11.50;;
43710;SDS011;29309;42.682;23.372;2022-12-29T05:58:38;20.80;;;11.55;;
43710;SDS011;29309;42.682;23.372;2022-12-29T06:01:03;20.70;;;11.95;;
43710;SDS011;29309;42.682;23.372;2022-12-29T06:03:29;25.25;;;12.00;;
43710;SDS011;29309;42.682;23.372;2022-12-29T06:05:54;19.65;;;11.05;;
43710;SDS011;29309;42.682;23.372;2022-12-29T06:08:20;28.83;;;11.32;;
43710;SDS011;29309;42.682;23.372;2022-12-29T06:10:45;25.75;;;11.55;;
43710;SDS011;29309;42.682;23.372;2022-12-29T06:13:11;21.63;;;11.05;;
43710;SDS011;29309;42.682;23.372;2022-12-29T06:15:36;23.30;;;11.77;;
43710;SDS011;29309;42.682;23.372;2022-12-29T06:18:01;24.88;;;13.48;;
43710;SDS011;29309;42.682;23.372;2022-12-29T06:20:27;20.63;;;11.40;;
43710;SDS011;29309;42.682;23.372;2022-12-29T06:22:53;24.00;;;12.05;;
43710;SDS011;29309;42.682;23.372;2022-12-29T06:25:18;23.33;;;13.25;;
43710;SDS011;29309;42.682;23.372;2022-12-29T06:27:44;23.40;;;12.70;;
43710;SDS011;29309;42.682;23.372;2022-12-29T06:30:09;26.77;;;13.25;;
43710;SDS011;29309;42.682;23.372;2022-12-29T06:32:35;22.33;;;12.25;;
43710;SDS011;29309;42.682;23.372;2022-12-29T06:35:01;34.05;;;13.00;;
43710;SDS011;29309;42.682;23.372;2022-12-29T06:37:28;28.63;;;13.25;;
43710;SDS011;29309;42.682;23.372;2022-12-29T06:39:54;21.70;;;12.60;;
43710;SDS011;29309;42.682;23.372;2022-12-29T06:42:19;25.08;;;12.32;;
43710;SDS011;29309;42.682;23.372;2022-12-29T06:44:44;23.45;;;12.63;;
43710;SDS011;29309;42.682;23.372;2022-12-29T06:47:10;22.20;;;13.23;;
43710;SDS011;29309;42.682;23.372;2022-12-29T06:49:36;23.35;;;12.48;;
43710;SDS011;29309;42.682;23.372;2022-12-29T06:52:01;25.48;;;12.63;;
43710;SDS011;29309;42.682;23.372;2022-12-29T06:54:29;27.40;;;12.05;;
43710;SDS011;29309;42.682;23.372;2022-12-29T06:56:57;24.30;;;14.18;;
43710;SDS011;29309;42.682;23.372;2022-12-29T06:59:23;27.33;;;14.07;;
43710;SDS011;29309;42.682;23.372;2022-12-29T07:01:49;32.00;;;15.77;;
43710;SDS011;29309;42.682;23.372;2022-12-29T07:04:15;30.35;;;15.18;;
43710;SDS011;29309;42.682;23.372;2022-12-29T07:06:40;33.47;;;15.30;;
43710;SDS011;29309;42.682;23.372;2022-12-29T07:09:06;27.48;;;15.45;;
43710;SDS011;29309;42.682;23.372;2022-12-29T07:11:33;35.00;;;16.45;;
43710;SDS011;29309;42.682;23.372;2022-12-29T07:13:58;34.75;;;19.20;;
43710;SDS011;29309;42.682;23.372;2022-12-29T07:16:24;34.08;;;17.67;;
43710;SDS011;29309;42.682;23.372;2022-12-29T07:18:50;31.40;;;18.10;;
43710;SDS011;29309;42.682;23.372;2022-12-29T07:21:16;32.97;;;18.15;;
43710;SDS011;29309;42.682;23.372;2022-12-29T07:23:42;41.88;;;22.02;;
43710;SDS011;29309;42.682;23.372;2022-12-29T07:26:08;34.65;;;20.58;;
43710;SDS011;29309;42.682;23.372;2022-12-29T07:28:36;44.90;;;22.27;;
43710;SDS011;29309;42.682;23.372;2022-12-29T07:31:03;37.55;;;20.35;;
43710;SDS011;29309;42.682;23.372;2022-12-29T07:33:29;39.13;;;20.10;;
43710;SDS011;29309;42.682;23.372;2022-12-29T07:35:55;40.60;;;21.27;;
43710;SDS011;29309;42.682;23.372;2022-12-29T07:38:21;27.70;;;16.30;;
43710;SDS011;29309;42.682;23.372;2022-12-29T07:40:46;28.08;;;16.33;;
43710;SDS011;29309;42.682;23.372;2022-12-29T07:43:11;32.08;;;17.63;;
43710;SDS011;29309;42.682;23.372;2022-12-29T07:45:37;29.63;;;17.08;;
43710;SDS011;29309;42.682;23.372;2022-12-29T07:48:03;33.92;;;16.92;;
43710;SDS011;29309;42.682;23.372;2022-12-29T07:50:30;28.85;;;15.88;;
43710;SDS011;29309;42.682;23.372;2022-12-29T07:52:56;30.38;;;15.65;;
43710;SDS011;29309;42.682;23.372;2022-12-29T07:55:21;25.92;;;15.85;;
43710;SDS011;29309;42.682;23.372;2022-12-29T07:57:47;34.58;;;18.92;;
43710;SDS011;29309;42.682;23.372;2022-12-29T08:00:12;30.70;;;16.38;;
43710;SDS011;29309;42.682;23.372;2022-12-29T08:02:38;23.55;;;14.27;;
43710;SDS011;29309;42.682;23.372;2022-12-29T08:05:04;24.80;;;14.90;;
43710;SDS011;29309;42.682;23.372;2022-12-29T08:07:29;26.35;;;15.18;;
43710;SDS011;29309;42.682;23.372;2022-12-29T08:09:55;24.15;;;14.00;;
43710;SDS011;29309;42.682;23.372;2022-12-29T08:12:20;24.90;;;15.48;;
43710;SDS011;29309;42.682;23.372;2022-12-29T08:14:46;26.73;;;15.48;;
43710;SDS011;29309;42.682;23.372;2022-12-29T08:17:11;28.05;;;16.13;;
43710;SDS011;29309;42.682;23.372;2022-12-29T08:19:36;29.42;;;15.68;;
43710;SDS011;29309;42.682;23.372;2022-12-29T08:22:02;23.17;;;14.40;;
43710;SDS011;29309;42.682;23.372;2022-12-29T08:24:28;28.23;;;15.95;;
43710;SDS011;29309;42.682;23.372;2022-12-29T08:26:53;28.95;;;15.52;;
43710;SDS011;29309;42.682;23.372;2022-12-29T08:29:19;27.25;;;14.93;;
43710;SDS011;29309;42.682;23.372;2022-12-29T08:31:46;27.45;;;14.75;;
43710;SDS011;29309;42.682;23.372;2022-12-29T08:34:12;27.63;;;14.88;;
43710;SDS011;29309;42.682;23.372;2022-12-29T08:36:37;22.38;;;15.07;;
43710;SDS011;29309;42.682;23.372;2022-12-29T08:39:03;32.00;;;16.92;;
43710;SDS011;29309;42.682;23.372;2022-12-29T08:41:28;29.98;;;17.27;;
43710;SDS011;29309;42.682;23.372;2022-12-29T08:43:54;28.27;;;15.93;;
43710;SDS011;29309;42.682;23.372;2022-12-29T08:46:19;27.50;;;15.60;;
43710;SDS011;29309;42.682;23.372;2022-12-29T08:48:44;33.17;;;17.92;;
43710;SDS011;29309;42.682;23.372;2022-12-29T08:51:10;34.00;;;17.83;;
43710;SDS011;29309;42.682;23.372;2022-12-29T08:53:36;28.90;;;15.98;;
43710;SDS011;29309;42.682;23.372;2022-12-29T08:56:01;32.05;;;16.42;;
43710;SDS011;29309;42.682;23.372;2022-12-29T08:58:27;27.38;;;16.45;;
43710;SDS011;29309;42.682;23.372;2022-12-29T09:00:53;33.15;;;17.15;;
43710;SDS011;29309;42.682;23.372;2022-12-29T09:03:20;29.98;;;16.40;;
43710;SDS011;29309;42.682;23.372;2022-12-29T09:05:49;30.35;;;15.98;;
43710;SDS011;29309;42.682;23.372;2022-12-29T09:08:16;31.63;;;15.55;;
43710;SDS011;29309;42.682;23.372;2022-12-29T09:10:42;44.55;;;16.15;;
43710;SDS011;29309;42.682;23.372;2022-12-29T09:13:08;27.35;;;15.60;;
43710;SDS011;29309;42.682;23.372;2022-12-29T09:15:33;24.00;;;13.90;;
43710;SDS011;29309;42.682;23.372;2022-12-29T09:17:59;24.90;;;14.75;;
43710;SDS011;29309;42.682;23.372;2022-12-29T09:20:24;30.15;;;14.10;;
43710;SDS011;29309;42.682;23.372;2022-12-29T09:22:50;25.88;;;13.63;;
43710;SDS011;29309;42.682;23.372;2022-12-29T09:25:15;31.90;;;14.45;;
43710;SDS011;29309;42.682;23.372;2022-12-29T09:27:41;24.25;;;14.30;;
43710;SDS011;29309;42.682;23.372;2022-12-29T09:30:07;33.60;;;14.63;;
43710;SDS011;29309;42.682;23.372;2022-12-29T09:32:35;34.92;;;14.85;;
43710;SDS011;29309;42.682;23.372;2022-12-29T09:35:01;25.88;;;13.57;;
43710;SDS011;29309;42.682;23.372;2022-12-29T09:37:27;23.50;;;13.75;;
43710;SDS011;29309;42.682;23.372;2022-12-29T09:39:53;26.67;;;14.18;;
43710;SDS011;29309;42.682;23.372;2022-12-29T09:47:37;20.35;;;12.75;;
43710;SDS011;29309;42.682;23.372;2022-12-29T09:52:47;28.25;;;14.15;;
43710;SDS011;29309;42.682;23.372;2022-12-29T09:55:19;25.15;;;13.98;;
43710;SDS011;29309;42.682;23.372;2022-12-29T09:57:58;23.10;;;13.82;;
43710;SDS011;29309;42.682;23.372;2022-12-29T10:03:40;25.60;;;13.35;;
43710;SDS011;29309;42.682;23.372;2022-12-29T10:06:11;29.55;;;13.85;;
43710;SDS011;29309;42.682;23.372;2022-12-29T10:11:46;21.42;;;12.65;;
43710;SDS011;29309;42.682;23.372;2022-12-29T10:24:44;21.40;;;12.85;;
43710;SDS011;29309;42.682;23.372;2022-12-29T10:27:13;23.55;;;13.00;;
43710;SDS011;29309;42.682;23.372;2022-12-29T10:29:48;19.15;;;12.38;;
43710;SDS011;29309;42.682;23.372;2022-12-29T10:34:54;23.73;;;12.65;;
43710;SDS011;29309;42.682;23.372;2022-12-29T10:40:24;20.92;;;12.82;;
43710;SDS011;29309;42.682;23.372;2022-12-29T10:42:53;20.30;;;12.20;;
43710;SDS011;29309;42.682;23.372;2022-12-29T10:45:21;21.05;;;11.70;;
43710;SDS011;29309;42.682;23.372;2022-12-29T10:48:33;19.33;;;12.27;;
43710;SDS011;29309;42.682;23.372;2022-12-29T10:50:50;21.67;;;13.13;;
43710;SDS011;29309;42.682;23.372;2022-12-29T10:53:20;25.15;;;14.68;;
43710;SDS011;29309;42.682;23.372;2022-12-29T10:55:49;23.67;;;13.63;;
43710;SDS011;29309;42.682;23.372;2022-12-29T10:58:15;22.13;;;12.90;;
43710;SDS011;29309;42.682;23.372;2022-12-29T11:00:41;23.60;;;13.50;;
43710;SDS011;29309;42.682;23.372;2022-12-29T11:05:46;22.02;;;13.45;;
43710;SDS011;29309;42.682;23.372;2022-12-29T11:08:14;23.60;;;13.43;;
43710;SDS011;29309;42.682;23.372;2022-12-29T11:10:42;26.35;;;15.50;;
43710;SDS011;29309;42.682;23.372;2022-12-29T11:13:14;22.42;;;14.45;;
43710;SDS011;29309;42.682;23.372;2022-12-29T11:15:46;26.50;;;15.00;;
43710;SDS011;29309;42.682;23.372;2022-12-29T11:18:27;28.58;;;15.70;;
43710;SDS011;29309;42.682;23.372;2022-12-29T11:20:58;27.55;;;15.32;;
43710;SDS011;29309;42.682;23.372;2022-12-29T11:28:46;26.38;;;15.60;;
43710;SDS011;29309;42.682;23.372;2022-12-29T11:31:28;31.05;;;17.08;;
43710;SDS011;29309;42.682;23.372;2022-12-29T11:33:54;27.45;;;16.58;;
43710;SDS011;29309;42.682;23.372;2022-12-29T11:36:20;29.35;;;16.20;;
43710;SDS011;29309;42.682;23.372;2022-12-29T11:38:49;25.48;;;15.82;;
43710;SDS011;29309;42.682;23.372;2022-12-29T11:41:25;29.63;;;17.33;;
43710;SDS011;29309;42.682;23.372;2022-12-29T11:43:53;28.17;;;17.27;;
43710;SDS011;29309;42.682;23.372;2022-12-29T11:46:22;31.75;;;18.13;;
43710;SDS011;29309;42.682;23.372;2022-12-29T11:48:52;38.28;;;17.75;;
43710;SDS011;29309;42.682;23.372;2022-12-29T11:51:22;29.52;;;18.25;;
43710;SDS011;29309;42.682;23.372;2022-12-29T11:53:51;28.80;;;19.17;;
43710;SDS011;29309;42.682;23.372;2022-12-29T11:56:22;35.55;;;18.27;;
43710;SDS011;29309;42.682;23.372;2022-12-29T12:02:11;24.25;;;15.50;;
43710;SDS011;29309;42.682;23.372;2022-12-29T12:04:51;26.10;;;15.35;;
43710;SDS011;29309;42.682;23.372;2022-12-29T12:10:33;30.58;;;16.33;;
43710;SDS011;29309;42.682;23.372;2022-12-29T12:13:10;29.42;;;17.08;;
43710;SDS011;29309;42.682;23.372;2022-12-29T12:16:08;30.25;;;16.83;;
43710;SDS011;29309;42.682;23.372;2022-12-29T12:18:39;27.33;;;16.45;;
43710;SDS011;29309;42.682;23.372;2022-12-29T12:24:08;33.55;;;15.23;;
43710;SDS011;29309;42.682;23.372;2022-12-29T12:29:14;25.67;;;15.90;;
43710;SDS011;29309;42.682;23.372;2022-12-29T12:31:47;24.92;;;14.77;;
43710;SDS011;29309;42.682;23.372;2022-12-29T12:34:20;26.27;;;15.20;;
43710;SDS011;29309;42.682;23.372;2022-12-29T12:54:13;21.85;;;13.63;;
43710;SDS011;29309;42.682;23.372;2022-12-29T12:57:09;22.45;;;13.50;;
43710;SDS011;29309;42.682;23.372;2022-12-29T13:17:01;31.45;;;15.27;;
43710;SDS011;29309;42.682;23.372;2022-12-29T13:19:48;28.98;;;16.08;;
43710;SDS011;29309;42.682;23.372;2022-12-29T13:22:42;26.13;;;15.55;;
43710;SDS011;29309;42.682;23.372;2022-12-29T13:30:18;31.38;;;17.20;;
43710;SDS011;29309;42.682;23.372;2022-12-29T13:36:08;40.28;;;18.45;;
43710;SDS011;29309;42.682;23.372;2022-12-29T13:38:44;27.13;;;15.50;;
43710;SDS011;29309;42.682;23.372;2022-12-29T13:41:15;29.52;;;16.65;;
43710;SDS011;29309;42.682;23.372;2022-12-29T13:43:46;33.03;;;17.80;;
43710;SDS011;29309;42.682;23.372;2022-12-29T13:46:16;35.90;;;19.23;;
43710;SDS011;29309;42.682;23.372;2022-12-29T13:48:53;31.02;;;17.40;;
43710;SDS011;29309;42.682;23.372;2022-12-29T13:51:23;28.95;;;16.75;;
43710;SDS011;29309;42.682;23.372;2022-12-29T13:56:25;39.42;;;18.23;;
43710;SDS011;29309;42.682;23.372;2022-12-29T13:59:14;33.10;;;17.75;;
43710;SDS011;29309;42.682;23.372;2022-12-29T14:01:48;28.10;;;15.85;;
43710;SDS011;29309;42.682;23.372;2022-12-29T14:04:25;27.80;;;16.38;;
43710;SDS011;29309;42.682;23.372;2022-12-29T14:07:05;34.20;;;18.85;;
43710;SDS011;29309;42.682;23.372;2022-12-29T14:12:18;28.75;;;17.40;;
43710;SDS011;29309;42.682;23.372;2022-12-29T14:14:52;29.98;;;16.77;;
43710;SDS011;29309;42.682;23.372;2022-12-29T14:17:19;33.42;;;17.25;;
43710;SDS011;29309;42.682;23.372;2022-12-29T14:19:46;33.20;;;17.55;;
43710;SDS011;29309;42.682;23.372;2022-12-29T14:22:27;29.05;;;16.90;;
43710;SDS011;29309;42.682;23.372;2022-12-29T14:24:53;31.95;;;16.80;;
43710;SDS011;29309;42.682;23.372;2022-12-29T14:29:45;33.08;;;15.80;;
43710;SDS011;29309;42.682;23.372;2022-12-29T14:34:50;29.42;;;15.48;;
43710;SDS011;29309;42.682;23.372;2022-12-29T14:39:59;27.98;;;14.18;;
43710;SDS011;29309;42.682;23.372;2022-12-29T14:42:47;27.50;;;14.98;;
43710;SDS011;29309;42.682;23.372;2022-12-29T14:47:40;26.33;;;13.77;;
43710;SDS011;29309;42.682;23.372;2022-12-29T14:50:13;29.35;;;14.70;;
43710;SDS011;29309;42.682;23.372;2022-12-29T14:57:57;21.55;;;14.10;;
43710;SDS011;29309;42.682;23.372;2022-12-29T15:00:27;35.72;;;16.77;;
43710;SDS011;29309;42.682;23.372;2022-12-29T15:05:48;35.95;;;18.38;;
43710;SDS011;29309;42.682;23.372;2022-12-29T15:08:18;31.30;;;16.98;;
43710;SDS011;29309;42.682;23.372;2022-12-29T15:11:30;31.80;;;17.35;;
43710;SDS011;29309;42.682;23.372;2022-12-29T15:13:39;34.10;;;16.27;;
43710;SDS011;29309;42.682;23.372;2022-12-29T15:16:52;28.50;;;15.00;;
43710;SDS011;29309;42.682;23.372;2022-12-29T15:19:02;33.27;;;17.03;;
43710;SDS011;29309;42.682;23.372;2022-12-29T15:21:30;28.33;;;15.63;;
43710;SDS011;29309;42.682;23.372;2022-12-29T15:23:59;45.95;;;17.05;;
43710;SDS011;29309;42.682;23.372;2022-12-29T15:26:41;35.22;;;16.75;;
43710;SDS011;29309;42.682;23.372;2022-12-29T15:31:54;34.17;;;16.23;;
43710;SDS011;29309;42.682;23.372;2022-12-29T15:34:21;32.58;;;17.70;;
43710;SDS011;29309;42.682;23.372;2022-12-29T15:36:46;42.75;;;18.88;;
43710;SDS011;29309;42.682;23.372;2022-12-29T15:39:19;38.40;;;18.60;;
43710;SDS011;29309;42.682;23.372;2022-12-29T15:42:20;38.05;;;17.58;;
43710;SDS011;29309;42.682;23.372;2022-12-29T15:44:43;43.08;;;18.83;;
43710;SDS011;29309;42.682;23.372;2022-12-29T15:49:49;35.95;;;19.23;;
43710;SDS011;29309;42.682;23.372;2022-12-29T15:52:18;42.20;;;20.38;;
43710;SDS011;29309;42.682;23.372;2022-12-29T15:54:46;48.28;;;22.88;;
43710;SDS011;29309;42.682;23.372;2022-12-29T15:59:46;50.58;;;24.58;;
43710;SDS011;29309;42.682;23.372;2022-12-29T16:02:13;46.15;;;23.00;;
43710;SDS011;29309;42.682;23.372;2022-12-29T16:04:38;46.15;;;23.65;;
43710;SDS011;29309;42.682;23.372;2022-12-29T16:07:20;48.33;;;23.25;;
43710;SDS011;29309;42.682;23.372;2022-12-29T16:09:53;50.22;;;21.70;;
43710;SDS011;29309;42.682;23.372;2022-12-29T16:12:21;45.95;;;22.63;;
43710;SDS011;29309;42.682;23.372;2022-12-29T16:14:50;55.67;;;24.15;;
43710;SDS011;29309;42.682;23.372;2022-12-29T16:17:23;46.75;;;22.33;;
43710;SDS011;29309;42.682;23.372;2022-12-29T16:19:56;51.20;;;24.63;;
43710;SDS011;29309;42.682;23.372;2022-12-29T16:22:36;62.85;;;26.90;;
43710;SDS011;29309;42.682;23.372;2022-12-29T16:25:15;44.97;;;21.70;;
43710;SDS011;29309;42.682;23.372;2022-12-29T16:27:47;64.15;;;30.13;;
43710;SDS011;29309;42.682;23.372;2022-12-29T16:30:17;69.00;;;28.83;;
43710;SDS011;29309;42.682;23.372;2022-12-29T16:32:47;62.85;;;28.73;;
43710;SDS011;29309;42.682;23.372;2022-12-29T16:37:48;60.53;;;33.00;;
43710;SDS011;29309;42.682;23.372;2022-12-29T16:40:31;93.85;;;45.05;;
43710;SDS011;29309;42.682;23.372;2022-12-29T16:43:00;83.97;;;42.55;;
43710;SDS011;29309;42.682;23.372;2022-12-29T16:48:16;116.50;;;57.85;;
43710;SDS011;29309;42.682;23.372;2022-12-29T16:50:44;140.27;;;69.50;;
43710;SDS011;29309;42.682;23.372;2022-12-29T16:53:21;154.35;;;78.93;;
43710;SDS011;29309;42.682;23.372;2022-12-29T16:55:54;147.02;;;73.38;;
43710;SDS011;29309;42.682;23.372;2022-12-29T16:58:23;173.40;;;82.55;;
43710;SDS011;29309;42.682;23.372;2022-12-29T17:00:54;163.85;;;80.25;;
43710;SDS011;29309;42.682;23.372;2022-12-29T17:03:23;160.77;;;74.50;;
43710;SDS011;29309;42.682;23.372;2022-12-29T17:05:57;161.27;;;78.03;;
43710;SDS011;29309;42.682;23.372;2022-12-29T17:08:23;180.68;;;83.95;;
43710;SDS011;29309;42.682;23.372;2022-12-29T17:10:53;146.98;;;68.78;;
43710;SDS011;29309;42.682;23.372;2022-12-29T17:13:38;157.18;;;74.10;;
43710;SDS011;29309;42.682;23.372;2022-12-29T17:16:07;141.43;;;66.85;;
43710;SDS011;29309;42.682;23.372;2022-12-29T17:18:35;135.82;;;62.22;;